createdAt,value
2023-01-26T00:28:04.616Z,1.22
2023-01-26T00:29:04.639Z,1.24
2023-01-26T00:30:04.667Z,1.23
2023-01-26T00:31:04.729Z,1.25
2023-01-26T00:32:04.746Z,1.22
2023-01-26T00:33:04.758Z,1.23
2023-01-26T00:34:04.791Z,1.22
2023-01-26T00:35:04.841Z,1.23
2023-01-26T00:36:04.835Z,1.21
2023-01-26T00:37:04.917Z,1.22
2023-01-26T00:38:04.918Z,1.23
2023-01-26T00:39:04.944Z,1.22
2023-01-26T00:40:04.998Z,1.22
2023-01-26T00:41:05.012Z,1.24
2023-01-26T00:42:05.052Z,1.23
2023-01-26T00:43:05.094Z,1.22
2023-01-26T00:44:05.122Z,1.24
2023-01-26T00:45:05.156Z,1.22
2023-01-26T00:46:05.159Z,1.22
2023-01-26T00:47:05.233Z,1.23
2023-01-26T00:48:05.248Z,1.21
2023-01-26T00:49:05.262Z,1.22
2023-01-26T00:50:05.304Z,1.21
2023-01-26T00:51:05.360Z,1.19
2023-01-26T00:52:05.404Z,1.23
2023-01-26T00:53:05.433Z,1.19
2023-01-26T00:54:05.463Z,1.19
2023-01-26T00:55:05.482Z,1.20
2023-01-26T00:56:05.537Z,1.20
2023-01-26T00:57:05.570Z,1.19
2023-01-26T00:58:05.608Z,1.19
2023-01-26T00:59:05.613Z,1.20
2023-01-26T01:00:05.670Z,1.21
2023-01-26T01:01:05.749Z,1.20
2023-01-26T01:02:05.743Z,1.21
2023-01-26T01:03:05.784Z,1.21
2023-01-26T01:04:05.803Z,1.21
2023-01-26T01:05:05.810Z,1.21
2023-01-26T01:06:05.865Z,1.20
2023-01-26T01:07:05.903Z,1.20
2023-01-26T01:08:05.897Z,1.19
2023-01-26T01:09:05.959Z,1.22
2023-01-26T01:10:05.972Z,1.22
2023-01-26T01:11:06.005Z,1.19
2023-01-26T01:12:06.045Z,1.18
2023-01-26T01:13:06.058Z,1.19
2023-01-26T01:14:06.123Z,1.20
2023-01-26T01:15:06.160Z,1.20
2023-01-26T01:16:06.232Z,1.19
2023-01-26T01:17:06.228Z,1.19
2023-01-26T01:18:06.231Z,1.18
2023-01-26T01:19:06.300Z,1.21
2023-01-26T01:20:06.335Z,1.17
2023-01-26T01:21:06.486Z,1.19
2023-01-26T01:22:06.383Z,1.19
2023-01-26T01:23:06.431Z,1.18
2023-01-26T01:24:06.468Z,1.19
2023-01-26T01:25:06.495Z,1.18
2023-01-26T01:26:06.518Z,1.19
2023-01-26T01:27:06.557Z,1.18
2023-01-26T01:28:06.613Z,1.18
2023-01-26T01:29:06.633Z,1.15
2023-01-26T01:30:06.678Z,1.18
2023-01-26T01:31:06.770Z,1.17
2023-01-26T01:32:06.822Z,1.15
2023-01-26T01:33:06.760Z,1.18
2023-01-26T01:34:06.809Z,1.16
2023-01-26T01:35:06.868Z,1.16
2023-01-26T01:36:06.918Z,1.15
2023-01-26T01:37:06.934Z,1.15
2023-01-26T01:38:06.960Z,1.18
2023-01-26T01:39:06.979Z,1.17
2023-01-26T02:46:08.580Z,1.54
2023-01-26T02:47:08.596Z,1.57
2023-01-26T02:48:08.670Z,1.57
2023-01-26T02:49:08.687Z,1.54
2023-01-26T02:50:08.882Z,1.60
2023-01-26T02:51:08.833Z,1.56
2023-01-26T02:52:08.899Z,1.60
2023-01-26T02:53:08.974Z,1.59
2023-01-26T02:54:09.017Z,1.56
2023-01-26T02:55:09.083Z,1.54
2023-01-26T02:56:09.139Z,1.55
2023-01-26T02:57:09.228Z,1.56
2023-01-26T02:58:09.282Z,1.55
2023-01-26T02:59:09.307Z,1.57
2023-01-26T03:00:09.734Z,1.57
2023-01-26T03:01:09.478Z,1.58
2023-01-26T03:02:09.534Z,1.56
2023-01-26T03:03:09.588Z,1.60
2023-01-26T03:04:09.622Z,1.56
2023-01-26T03:05:09.699Z,1.56
2023-01-26T03:06:09.718Z,1.54
2023-01-26T03:07:09.788Z,1.58
2023-01-26T03:08:09.841Z,1.56
2023-01-26T03:09:09.921Z,1.58
2023-01-26T03:10:10.322Z,1.54
2023-01-26T03:11:10.000Z,1.55
2023-01-26T03:12:10.065Z,1.57
2023-01-26T03:13:10.114Z,1.57
2023-01-26T03:14:10.179Z,1.53
2023-01-26T03:15:10.201Z,1.55
2023-01-26T03:16:10.315Z,1.56
2023-01-26T03:17:10.333Z,1.59
2023-01-26T03:18:10.368Z,1.56
2023-01-26T03:19:10.446Z,1.53
2023-01-26T03:20:10.767Z,1.56
2023-01-26T03:21:10.537Z,1.51
2023-01-26T03:22:10.600Z,1.53
2023-01-26T03:23:10.634Z,1.55
2023-01-26T03:24:10.737Z,1.52
2023-01-26T03:25:10.729Z,1.53
2023-01-26T03:26:10.791Z,1.52
2023-01-26T03:27:10.861Z,1.52
2023-01-26T03:28:10.864Z,1.54
2023-01-26T03:29:10.944Z,1.53
2023-01-26T03:30:11.248Z,1.53
2023-01-26T03:31:11.064Z,1.55
2023-01-26T03:32:11.046Z,1.53
2023-01-26T03:33:11.099Z,1.53
2023-01-26T03:34:11.186Z,1.52
2023-01-26T03:35:11.192Z,1.55
2023-01-26T03:36:11.233Z,1.51
2023-01-26T03:37:11.294Z,1.51
2023-01-26T03:38:11.321Z,1.54
2023-01-26T03:39:11.388Z,1.51
2023-01-26T03:40:11.764Z,1.52
2023-01-26T03:41:11.452Z,1.51
2023-01-26T03:42:11.504Z,1.51
2023-01-26T03:43:11.564Z,1.51
2023-01-26T03:44:11.577Z,1.52
2023-01-26T03:45:11.601Z,1.50
2023-01-26T03:46:11.693Z,1.51
2023-01-26T03:47:11.693Z,1.50
2023-01-26T03:48:11.732Z,1.52
2023-01-26T03:49:11.845Z,1.53
2023-01-26T03:50:12.321Z,1.51
2023-01-26T03:51:11.842Z,1.49
2023-01-26T03:52:11.930Z,1.51
2023-01-26T03:53:11.932Z,1.52
2023-01-26T03:54:11.978Z,1.47
2023-01-26T03:55:12.003Z,1.47
2023-01-26T03:56:12.031Z,1.50
2023-01-26T03:57:12.067Z,1.48
2023-01-26T03:58:12.111Z,1.46
2023-01-26T03:59:12.156Z,1.49
2023-01-26T04:00:12.584Z,1.52
2023-01-26T04:01:12.205Z,1.49
2023-01-26T04:02:12.285Z,1.47
2023-01-26T04:03:12.267Z,1.49
2023-01-26T04:04:12.330Z,1.48
2023-01-26T04:05:12.324Z,1.50
2023-01-26T04:06:15.742Z,1.50
2023-01-26T04:07:12.379Z,1.50
2023-01-26T04:08:12.355Z,1.48
2023-01-26T04:09:12.325Z,1.50
2023-01-26T04:10:12.741Z,1.49
2023-01-26T04:11:12.319Z,1.49
2023-01-26T04:12:12.335Z,1.51
2023-01-26T04:13:12.321Z,1.47
2023-01-26T04:14:12.323Z,1.50
2023-01-26T04:15:12.311Z,1.48
2023-01-26T04:16:12.337Z,1.47
2023-01-26T04:17:12.280Z,1.47
2023-01-26T04:18:12.258Z,1.49
2023-01-26T04:19:12.275Z,1.48
2023-01-26T04:20:12.501Z,1.48
2023-01-26T04:21:12.281Z,1.47
2023-01-26T04:22:12.237Z,1.50
2023-01-26T04:23:12.260Z,1.50
2023-01-26T04:24:12.341Z,1.47
2023-01-26T04:25:12.208Z,1.46
2023-01-26T04:26:12.246Z,1.43
2023-01-26T04:27:12.210Z,1.49
2023-01-26T04:28:12.210Z,1.48
2023-01-26T04:29:12.199Z,1.47
2023-01-26T04:30:12.579Z,1.47
2023-01-26T04:31:12.211Z,1.46
2023-01-26T04:32:12.167Z,1.46
2023-01-26T04:33:12.174Z,1.46
2023-01-26T04:34:12.155Z,1.53
2023-01-26T04:35:12.138Z,1.46
2023-01-26T04:36:12.159Z,1.44
2023-01-26T04:37:12.140Z,1.47
2023-01-26T04:38:12.138Z,1.44
2023-01-26T04:39:12.152Z,1.45
2023-01-26T04:40:12.411Z,1.43
2023-01-26T04:41:12.173Z,1.43
2023-01-26T04:42:12.247Z,1.48
2023-01-26T04:43:12.235Z,1.45
2023-01-26T04:44:12.283Z,1.48
2023-01-26T04:45:12.335Z,1.47
2023-01-26T04:46:12.400Z,1.49
2023-01-26T04:47:12.437Z,1.48
2023-01-26T04:48:12.480Z,1.43
2023-01-26T04:49:12.480Z,1.44
2023-01-26T04:50:12.988Z,1.48
2023-01-26T04:51:12.623Z,1.43
2023-01-26T04:52:12.639Z,1.50
2023-01-26T04:53:12.692Z,1.49
2023-01-26T04:54:12.725Z,1.47
2023-01-26T04:55:12.776Z,1.48
2023-01-26T04:56:12.849Z,1.43
2023-01-26T04:57:12.877Z,1.48
2023-01-26T04:58:12.918Z,1.47
2023-01-26T04:59:13.013Z,1.45
2023-01-26T05:00:13.357Z,1.43
2023-01-26T05:01:13.129Z,1.41
2023-01-26T05:02:13.163Z,1.42
2023-01-26T05:03:13.198Z,1.41
2023-01-26T05:04:13.277Z,1.40
2023-01-26T05:05:13.316Z,1.43
2023-01-26T05:06:13.409Z,1.40
2023-01-26T05:07:13.420Z,1.45
2023-01-26T05:08:13.479Z,1.39
2023-01-26T05:09:13.511Z,1.40
2023-01-26T05:10:15.712Z,1.42
2023-01-26T05:11:13.639Z,1.40
2023-01-26T05:12:13.653Z,1.41
2023-01-26T05:13:13.756Z,1.38
2023-01-26T05:14:13.797Z,1.44
2023-01-26T05:15:13.819Z,1.40
2023-01-26T05:16:13.973Z,1.41
2023-01-26T05:17:13.955Z,1.40
2023-01-26T05:18:13.984Z,1.41
2023-01-26T05:19:14.029Z,1.38
2023-01-26T07:26:35.505Z,1.31
2023-01-26T07:27:35.546Z,1.32
2023-01-26T07:28:35.587Z,1.32
2023-01-26T07:29:35.638Z,1.30
2023-01-26T07:30:35.758Z,1.31
2023-01-26T07:31:35.724Z,1.28
2023-01-26T07:32:35.757Z,1.26
2023-01-26T07:33:35.773Z,1.25
2023-01-26T07:34:36.083Z,1.26
2023-01-26T07:35:35.875Z,1.23
2023-01-26T07:36:35.889Z,1.22
2023-01-26T07:37:35.971Z,1.23
2023-01-26T07:38:35.971Z,1.23
2023-01-26T07:39:36.545Z,1.20
2023-01-26T07:40:36.426Z,1.15
2023-01-26T07:41:36.101Z,1.16
2023-01-26T07:42:36.093Z,1.11
2023-01-26T07:43:36.118Z,1.12
2023-01-26T07:44:36.145Z,1.14
2023-01-26T07:45:36.220Z,1.13
2023-01-26T07:46:36.264Z,1.08
2023-01-26T07:47:36.280Z,1.07
2023-01-26T07:48:36.366Z,1.04
2023-01-26T07:49:36.377Z,1.04
2023-01-26T07:50:36.422Z,1.03
2023-01-26T07:51:36.462Z,0.98
2023-01-26T07:52:36.515Z,0.97
2023-01-26T07:53:36.555Z,0.96
2023-01-26T07:54:36.623Z,0.96
2023-01-26T07:55:36.701Z,0.93
2023-01-26T07:56:36.720Z,0.95
2023-01-26T07:57:36.763Z,0.92
2023-01-26T07:58:36.818Z,0.89
2023-01-26T07:59:36.841Z,0.88
2023-01-26T08:00:36.939Z,0.84
2023-01-26T08:01:36.976Z,0.85
2023-01-26T08:02:37.018Z,0.83
2023-01-26T08:03:37.034Z,0.83
2023-01-26T08:04:37.546Z,0.85
2023-01-26T08:05:37.162Z,0.82
2023-01-26T08:06:37.180Z,0.82
2023-01-26T08:07:37.201Z,0.81
2023-01-26T08:08:37.224Z,0.81
2023-01-26T08:09:37.299Z,0.79
2023-01-26T08:10:37.311Z,0.79
2023-01-26T08:11:37.372Z,0.80
2023-01-26T08:12:40.183Z,0.79
2023-01-26T08:13:37.415Z,0.80
2023-01-26T08:14:46.379Z,0.80
2023-01-26T08:15:38.367Z,0.80
2023-01-26T08:16:37.412Z,0.76
2023-01-26T08:17:37.352Z,0.76
2023-01-26T08:18:37.363Z,0.76
2023-01-26T08:19:37.340Z,0.76
2023-01-26T08:20:37.332Z,0.74
2023-01-26T08:21:37.317Z,0.74
2023-01-26T08:22:37.326Z,0.73
2023-01-26T08:23:37.308Z,0.72
2023-01-26T08:24:37.335Z,0.72
2023-01-26T08:25:37.264Z,0.72
2023-01-26T08:26:37.319Z,0.72
2023-01-26T08:27:37.330Z,0.71
2023-01-26T08:28:37.362Z,0.70
2023-01-26T08:29:37.384Z,0.71
2023-01-26T08:30:37.406Z,0.68
2023-01-26T08:31:37.475Z,0.69
2023-01-26T08:32:37.552Z,0.69
2023-01-26T08:33:37.525Z,0.67
2023-01-26T08:34:37.546Z,0.67
2023-01-26T08:35:37.574Z,0.67
2023-01-26T08:36:37.615Z,0.65
2023-01-26T08:37:37.619Z,0.65
2023-01-26T08:38:37.687Z,0.65
2023-01-26T08:39:37.713Z,0.64
2023-01-26T08:40:37.758Z,0.64
2023-01-26T08:41:37.763Z,0.64
2023-01-26T08:42:37.810Z,0.63
2023-01-26T08:43:37.796Z,0.67
2023-01-26T08:44:37.871Z,0.65
2023-01-26T08:45:37.921Z,0.64
2023-01-26T08:46:37.899Z,0.64
2023-01-26T08:47:37.979Z,0.64
2023-01-26T08:48:37.983Z,0.62
2023-01-26T08:49:38.027Z,0.64
2023-01-26T08:50:38.031Z,0.64
2023-01-26T08:51:38.066Z,0.64
2023-01-26T08:52:38.107Z,0.63
2023-01-26T08:53:38.107Z,0.63
2023-01-26T08:54:38.171Z,0.62
2023-01-26T08:55:38.204Z,0.64
2023-01-26T08:57:38.259Z,0.61
2023-01-26T08:58:38.341Z,0.60
2023-01-26T08:59:38.700Z,0.61
2023-01-26T09:00:38.381Z,0.59
2023-01-26T09:01:38.420Z,0.58
2023-01-26T09:04:38.590Z,0.57
2023-01-26T09:05:38.469Z,0.55
2023-01-26T09:06:38.509Z,0.57
2023-01-26T09:07:38.510Z,0.58
2023-01-26T09:08:38.546Z,0.59
2023-01-26T09:09:38.585Z,0.56
2023-01-26T09:10:38.623Z,0.56
2023-01-26T09:11:38.641Z,0.55
2023-01-26T09:12:40.976Z,0.55
2023-01-26T09:13:38.759Z,0.54
2023-01-26T09:14:38.749Z,0.53
2023-01-26T09:15:38.769Z,0.54
2023-01-26T09:16:38.867Z,0.54
2023-01-26T09:17:38.828Z,0.55
2023-01-26T09:18:38.837Z,0.53
2023-01-26T09:19:39.118Z,0.56
2023-01-26T09:20:38.901Z,0.54
2023-01-26T09:21:38.933Z,0.53
2023-01-26T09:22:38.960Z,0.52
2023-01-26T09:23:38.990Z,0.54
2023-01-26T09:24:39.000Z,0.52
2023-01-26T09:25:39.035Z,0.53
2023-01-26T09:26:39.044Z,0.54
2023-01-26T09:27:39.088Z,0.53
2023-01-26T09:28:39.119Z,0.53
2023-01-26T09:29:39.174Z,0.53
2023-01-26T09:30:39.693Z,0.53
2023-01-26T09:31:39.336Z,0.53
2023-01-26T09:32:39.277Z,0.51
2023-01-26T09:33:39.269Z,0.52
2023-01-26T09:34:39.280Z,0.52
2023-01-26T09:35:39.367Z,0.50
2023-01-26T09:36:41.490Z,0.51
2023-01-26T09:37:39.369Z,0.51
2023-01-26T09:38:39.409Z,0.50
2023-01-26T09:39:39.394Z,0.51
2023-01-26T09:40:39.599Z,0.51
2023-01-26T09:41:39.469Z,0.53
2023-01-26T09:42:39.500Z,0.53
2023-01-26T09:43:39.523Z,0.53
2023-01-26T09:44:39.552Z,0.52
2023-01-26T09:45:40.104Z,0.53
2023-01-26T09:46:39.628Z,0.52
2023-01-26T09:47:39.606Z,0.53
2023-01-26T09:48:39.656Z,0.52
2023-01-26T09:49:39.653Z,0.51
2023-01-26T09:50:39.771Z,0.52
2023-01-26T09:51:39.741Z,0.51
2023-01-26T09:52:39.746Z,0.51
2023-01-26T09:53:39.801Z,0.51
2023-01-26T09:54:39.817Z,0.51
2023-01-26T09:55:40.116Z,0.50
2023-01-26T09:56:39.881Z,0.51
2023-01-26T09:57:39.836Z,0.51
2023-01-26T09:58:39.886Z,0.51
2023-01-26T09:59:39.947Z,0.52
2023-01-26T10:00:39.955Z,0.52
2023-01-26T10:01:39.996Z,0.51
2023-01-26T10:02:40.013Z,0.52
2023-01-26T10:03:39.976Z,0.51
2023-01-26T10:04:40.035Z,0.52
2023-01-26T10:05:40.056Z,0.51
2023-01-26T10:06:40.078Z,0.51
2023-01-26T10:07:40.119Z,0.51
2023-01-26T10:08:40.154Z,0.52
2023-01-26T10:09:40.158Z,0.52
2023-01-26T10:10:40.228Z,0.53
2023-01-26T10:11:40.262Z,0.51
2023-01-26T10:12:40.262Z,0.52
2023-01-26T10:13:40.295Z,0.52
2023-01-26T10:14:40.299Z,0.52
2023-01-26T10:15:40.692Z,0.52
2023-01-26T10:16:40.371Z,0.51
2023-01-26T10:17:40.391Z,0.50
2023-01-26T10:18:40.433Z,0.50
2023-01-26T10:19:40.423Z,0.52
2023-01-26T10:20:40.469Z,0.51
2023-01-26T10:21:40.497Z,0.52
2023-01-26T10:22:40.601Z,0.52
2023-01-26T10:23:40.562Z,0.51
2023-01-26T10:24:40.568Z,0.52
2023-01-26T10:25:40.654Z,0.51
2023-01-26T10:26:40.641Z,0.51
2023-01-26T10:27:40.644Z,0.53
2023-01-26T10:28:40.712Z,0.52
2023-01-26T10:29:40.703Z,0.52
2023-01-26T10:30:41.253Z,0.52
2023-01-26T10:31:40.778Z,0.51
2023-01-26T10:32:40.796Z,0.53
2023-01-26T10:33:40.815Z,0.50
2023-01-26T10:34:40.853Z,0.51
2023-01-26T10:35:40.861Z,0.52
2023-01-26T10:36:40.897Z,0.50
2023-01-26T10:37:40.906Z,0.51
2023-01-26T10:38:40.977Z,0.51
2023-01-26T10:39:41.000Z,0.50
2023-01-26T10:40:40.982Z,0.50
2023-01-26T10:41:41.024Z,0.50
2023-01-26T10:42:41.055Z,0.50
2023-01-26T10:43:41.046Z,0.50
2023-01-26T10:44:41.074Z,0.51
2023-01-26T10:45:41.084Z,0.52
2023-01-26T10:46:41.316Z,0.51
2023-01-26T10:47:41.145Z,0.52
2023-01-26T10:48:41.140Z,0.52
2023-01-26T10:49:41.199Z,0.52
2023-01-26T10:50:41.205Z,0.53
2023-01-26T10:51:41.243Z,0.52
2023-01-26T10:52:41.312Z,0.52
2023-01-26T10:53:41.255Z,0.53
2023-01-26T10:54:41.293Z,0.52
2023-01-26T10:55:41.297Z,0.52
2023-01-26T10:56:41.351Z,0.53
2023-01-26T10:57:41.341Z,0.53
2023-01-26T10:58:41.371Z,0.53
2023-01-26T10:59:41.402Z,0.52
2023-01-26T11:00:41.437Z,0.53
2023-01-26T11:01:41.659Z,0.52
2023-01-26T11:02:41.471Z,0.54
2023-01-26T11:03:41.478Z,0.51
2023-01-26T11:04:41.515Z,0.50
2023-01-26T11:05:41.540Z,0.53
2023-01-26T11:06:41.568Z,0.52
2023-01-26T11:07:41.587Z,0.52
2023-01-26T11:08:41.624Z,0.52
2023-01-26T11:09:41.633Z,0.52
2023-01-26T11:10:41.668Z,0.52
2023-01-26T11:11:41.724Z,0.51
2023-01-26T11:12:41.705Z,0.51
2023-01-26T11:13:41.765Z,0.50
2023-01-26T11:14:41.759Z,0.51
2023-01-26T11:15:41.796Z,0.52
2023-01-26T11:16:41.812Z,0.51
2023-01-26T11:17:41.858Z,0.52
2023-01-26T11:18:41.865Z,0.51
2023-01-26T11:19:41.895Z,0.52
2023-01-26T11:20:41.928Z,0.52
2023-01-26T11:21:42.146Z,0.52
2023-01-26T11:22:41.944Z,0.53
2023-01-26T11:23:42.006Z,0.52
2023-01-26T11:24:42.644Z,0.53
2023-01-26T11:25:42.053Z,0.50
2023-01-26T11:26:42.115Z,0.52
2023-01-26T11:27:42.095Z,0.51
2023-01-26T11:28:42.142Z,0.52
2023-01-26T11:29:42.135Z,0.51
2023-01-26T11:30:42.173Z,0.51
2023-01-26T11:31:42.238Z,0.52
2023-01-26T11:32:42.225Z,0.52
2023-01-26T11:33:42.226Z,0.50
2023-01-26T11:34:42.276Z,0.51
2023-01-26T11:35:42.306Z,0.52
2023-01-26T11:36:42.697Z,0.52
2023-01-26T11:37:42.361Z,0.52
2023-01-26T11:38:42.427Z,0.53
2023-01-26T11:55:42.968Z,0.52
2023-01-26T11:56:43.177Z,0.52
2023-01-26T11:57:43.058Z,0.52
2023-01-26T11:58:43.104Z,0.51
2023-01-26T11:59:43.161Z,0.52
2023-01-26T12:00:43.168Z,0.52
2023-01-26T12:01:43.656Z,0.52
2023-01-26T12:02:43.298Z,0.51
2023-01-26T12:03:43.277Z,0.52
2023-01-26T12:04:43.320Z,0.52
2023-01-26T12:05:43.339Z,0.52
2023-01-26T12:06:43.369Z,0.53
2023-01-26T12:07:43.426Z,0.53
2023-01-26T12:08:43.464Z,0.53
2023-01-26T12:09:43.482Z,0.55
2023-01-26T12:10:43.546Z,0.55
2023-01-26T12:11:43.587Z,0.54
2023-01-26T12:12:43.554Z,0.54
2023-01-26T12:13:43.650Z,0.54
2023-01-26T12:14:43.672Z,0.55
2023-01-26T12:15:43.689Z,0.52
2023-01-26T12:16:43.757Z,0.52
2023-01-26T12:17:43.804Z,0.52
2023-01-26T12:18:55.843Z,0.52
2023-01-26T12:19:44.811Z,0.52
2023-01-26T12:20:43.804Z,0.53
2023-01-26T12:21:43.778Z,0.53
2023-01-26T12:22:43.830Z,0.53
2023-01-26T12:23:43.763Z,0.54
2023-01-26T12:25:12.271Z,0.52
2023-01-26T12:26:43.755Z,0.48
2023-01-26T12:27:43.735Z,0.47
2023-01-26T12:28:43.735Z,0.50
2023-01-26T12:29:43.733Z,0.50
2023-01-26T12:30:43.827Z,0.50
2023-01-26T12:31:43.810Z,0.53
2023-01-26T12:32:44.188Z,0.53
2023-01-26T12:33:43.700Z,0.53
2023-01-26T12:34:43.676Z,0.52
2023-01-26T12:35:43.678Z,0.52
2023-01-26T12:36:43.725Z,0.53
2023-01-26T12:37:43.787Z,0.54
2023-01-26T12:38:43.815Z,0.53
2023-01-26T12:39:43.859Z,0.51
2023-01-26T12:40:43.916Z,0.54
2023-01-26T12:41:43.994Z,0.53
2023-01-26T12:42:43.961Z,0.52
2023-01-26T12:43:44.049Z,0.51
2023-01-26T12:44:44.083Z,0.55
2023-01-26T12:45:44.087Z,0.55
2023-01-26T12:46:44.124Z,0.54
2023-01-26T12:47:44.169Z,0.55
2023-01-26T12:48:44.179Z,0.54
2023-01-26T12:49:44.269Z,0.54
2023-01-26T12:50:44.260Z,0.52
2023-01-26T12:51:44.334Z,0.53
2023-01-26T12:52:44.383Z,0.52
2023-01-26T12:53:44.390Z,0.55
2023-01-26T12:54:44.483Z,0.55
2023-01-26T12:55:44.475Z,0.54
2023-01-26T12:56:44.514Z,0.53
2023-01-26T12:57:44.548Z,0.54
2023-01-26T12:58:44.579Z,0.56
2023-01-26T12:59:48.265Z,0.55
2023-01-26T13:00:44.646Z,0.55
2023-01-26T13:01:44.656Z,0.55
2023-01-26T13:02:44.648Z,0.53
2023-01-26T13:03:44.584Z,0.55
2023-01-26T13:04:45.447Z,0.61
2023-01-26T13:05:44.587Z,1.82
2023-01-26T13:06:44.584Z,1.08
2023-01-26T13:07:44.568Z,1.23
2023-01-26T13:08:44.593Z,1.70
2023-01-26T13:09:44.563Z,2.34
2023-01-26T13:10:44.564Z,3.39
2023-01-26T13:11:44.530Z,4.60
2023-01-26T13:12:44.543Z,6.45
2023-01-26T13:13:44.521Z,9.36
2023-01-26T13:14:44.516Z,9.60
2023-01-26T13:15:44.537Z,10.72
2023-01-26T13:16:44.555Z,9.81
2023-01-26T13:17:44.504Z,9.24
2023-01-26T13:18:44.523Z,9.17
2023-01-26T13:19:44.494Z,8.99
2023-01-26T13:20:44.519Z,8.75
2023-01-26T13:21:44.483Z,8.41
2023-01-26T13:22:44.540Z,8.18
2023-01-26T13:23:44.585Z,7.71
2023-01-26T13:24:44.664Z,7.37
2023-01-26T13:25:44.690Z,7.20
2023-01-26T13:26:44.768Z,6.92
2023-01-26T13:27:44.781Z,6.77
2023-01-26T13:28:44.846Z,6.54
2023-01-26T13:29:44.862Z,6.43
2023-01-26T13:30:45.050Z,6.32
2023-01-26T13:31:45.033Z,6.09
2023-01-26T13:32:45.028Z,5.93
2023-01-26T13:33:45.057Z,5.81
2023-01-26T13:34:45.150Z,5.76
2023-01-26T13:35:45.204Z,5.51
2023-01-26T13:36:45.256Z,5.27
2023-01-26T13:37:45.268Z,5.20
2023-01-26T13:38:45.342Z,5.12
2023-01-26T13:39:45.416Z,4.94
2023-01-26T13:40:45.423Z,4.73
2023-01-26T13:41:45.477Z,4.61
2023-01-26T13:42:45.613Z,4.47
2023-01-26T13:43:45.552Z,4.42
2023-01-26T13:44:45.598Z,4.24
2023-01-26T13:45:45.665Z,4.23
2023-01-26T13:46:45.746Z,4.19
2023-01-26T13:47:45.745Z,4.04
2023-01-26T13:48:45.787Z,3.96
2023-01-26T13:49:45.835Z,3.89
2023-01-26T13:50:45.891Z,3.94
2023-01-26T13:51:45.909Z,3.79
2023-01-26T13:52:45.972Z,3.68
2023-01-26T13:53:46.017Z,3.66
2023-01-26T13:54:46.029Z,3.53
2023-01-26T13:55:46.090Z,3.48
2023-01-26T13:56:46.111Z,3.39
2023-01-26T13:57:46.191Z,3.27
2023-01-26T13:58:46.220Z,3.26
2023-01-26T13:59:46.289Z,3.30
2023-01-26T14:00:46.277Z,3.20
2023-01-26T14:01:46.409Z,3.00
2023-01-26T14:02:46.410Z,2.96
2023-01-26T14:03:46.420Z,2.93
2023-01-26T14:04:46.488Z,2.79
2023-01-26T14:05:46.494Z,2.81
2023-01-26T14:06:46.566Z,2.79
2023-01-26T14:07:46.602Z,2.68
2023-01-26T14:08:46.633Z,2.66
2023-01-26T14:09:46.709Z,2.65
2023-01-26T14:10:46.808Z,2.51
2023-01-26T14:11:46.792Z,2.45
2023-01-26T14:12:47.822Z,2.45
2023-01-26T14:13:46.839Z,2.47
2023-01-26T14:14:46.899Z,2.40
2023-01-26T14:15:46.936Z,2.33
2023-01-26T14:16:46.991Z,2.28
2023-01-26T14:17:47.022Z,2.31
2023-01-26T14:18:47.046Z,2.18
2023-01-26T14:19:47.115Z,2.16
2023-01-26T14:20:47.138Z,2.12
2023-01-26T14:21:47.212Z,2.16
2023-01-26T14:22:47.256Z,2.05
2023-01-26T14:23:47.284Z,2.05
2023-01-26T14:24:47.364Z,2.08
2023-01-26T14:25:47.387Z,2.05
2023-01-26T14:26:47.463Z,1.98
2023-01-26T14:27:47.469Z,1.95
2023-01-26T14:28:47.558Z,1.87
2023-01-26T14:29:47.562Z,1.85
2023-01-26T14:30:47.805Z,1.87
2023-01-26T14:31:47.689Z,1.84
2023-01-26T14:32:47.743Z,1.81
2023-01-26T14:33:47.877Z,1.79
2023-01-26T14:34:47.845Z,1.81
2023-01-26T14:35:47.877Z,1.78
2023-01-26T14:36:47.932Z,1.76
2023-01-26T14:37:47.968Z,1.79
2023-01-26T14:38:48.011Z,1.76
2023-01-26T14:39:48.228Z,1.71
2023-01-26T14:40:48.097Z,1.71
2023-01-26T14:41:48.119Z,1.68
2023-01-26T14:42:48.230Z,1.68
2023-01-26T14:43:48.225Z,1.67
2023-01-26T14:44:48.270Z,1.69
2023-01-26T14:45:48.314Z,1.64
2023-01-26T14:46:48.409Z,1.63
2023-01-26T14:47:48.408Z,1.60
2023-01-26T14:48:48.445Z,1.59
2023-01-26T14:49:48.470Z,1.59
2023-01-26T14:50:48.571Z,1.57
2023-01-26T14:51:48.557Z,1.53
2023-01-26T14:52:48.629Z,1.56
2023-01-26T14:53:48.683Z,1.51
2023-01-26T14:54:48.728Z,1.50
2023-01-26T14:55:48.741Z,1.51
2023-01-26T14:56:48.790Z,1.47
2023-01-26T14:57:48.810Z,1.46
2023-01-26T14:58:48.838Z,1.48
2023-01-26T14:59:48.892Z,1.46
2023-01-26T15:00:49.004Z,1.43
2023-01-26T15:01:49.082Z,1.45
2023-01-26T15:02:48.991Z,1.43
2023-01-26T15:03:49.043Z,1.42
2023-01-26T15:04:49.089Z,1.40
2023-01-26T15:05:49.103Z,1.36
2023-01-26T15:06:49.159Z,1.36
2023-01-26T15:07:49.200Z,1.36
2023-01-26T15:08:49.224Z,1.37
2023-01-26T15:09:49.290Z,1.35
2023-01-26T15:10:49.303Z,1.34
2023-01-26T15:11:49.351Z,1.30
2023-01-26T15:12:49.386Z,1.30
2023-01-26T15:13:49.427Z,1.27
2023-01-26T15:14:49.486Z,1.26
2023-01-26T15:15:49.548Z,1.27
2023-01-26T15:16:49.533Z,1.26
2023-01-26T15:17:49.551Z,1.23
2023-01-26T15:18:49.602Z,1.21
2023-01-26T15:19:51.264Z,1.22
2023-01-26T15:20:49.803Z,1.18
2023-01-26T15:21:49.851Z,1.18
2023-01-26T15:22:49.886Z,1.17
2023-01-26T15:23:49.927Z,1.15
2023-01-26T15:24:49.963Z,1.15
2023-01-26T15:25:49.994Z,1.12
2023-01-26T15:26:50.047Z,1.11
2023-01-26T15:27:50.064Z,1.06
2023-01-26T15:28:50.106Z,1.08
2023-01-26T15:29:50.155Z,1.06
2023-01-26T15:30:50.182Z,1.09
2023-01-26T15:31:50.269Z,1.03
2023-01-26T15:32:50.280Z,1.04
2023-01-26T15:33:50.272Z,1.04
2023-01-26T15:34:50.357Z,1.03
2023-01-26T15:35:50.386Z,1.01
2023-01-26T15:36:50.419Z,0.97
2023-01-26T15:37:50.492Z,0.99
2023-01-26T15:38:50.532Z,0.98
2023-01-26T15:39:50.592Z,0.98
2023-01-26T15:40:50.610Z,0.95
2023-01-26T15:41:50.645Z,0.94
2023-01-26T15:42:50.719Z,0.93
2023-01-26T15:43:50.733Z,0.92
2023-01-26T15:44:50.791Z,0.89
2023-01-26T15:45:50.812Z,0.88
2023-01-26T15:46:50.961Z,0.88
2023-01-26T15:47:50.953Z,0.88
2023-01-26T15:48:50.959Z,0.87
2023-01-26T15:49:50.999Z,0.87
2023-01-26T15:50:51.070Z,0.86
2023-01-26T15:51:53.733Z,0.86
2023-01-26T15:52:51.127Z,0.84
2023-01-26T15:53:51.089Z,0.84
2023-01-26T15:54:51.074Z,0.83
2023-01-26T15:55:51.116Z,0.81
2023-01-26T15:56:51.094Z,0.81
2023-01-26T15:57:51.064Z,0.80
2023-01-26T15:58:51.078Z,0.80
2023-01-26T15:59:51.103Z,0.79
2023-01-26T16:00:51.067Z,0.78
2023-01-26T16:01:51.080Z,0.77
2023-01-26T16:02:51.006Z,0.77
2023-01-26T16:03:51.039Z,0.77
2023-01-26T16:04:51.055Z,0.75
2023-01-26T16:05:51.009Z,0.76
2023-01-26T16:06:51.019Z,0.74
2023-01-26T16:07:51.725Z,0.73
2023-01-26T16:08:50.993Z,0.73
2023-01-26T16:09:51.015Z,0.72
2023-01-26T16:10:50.971Z,0.70
2023-01-26T16:11:50.987Z,0.70
2023-01-26T16:12:51.037Z,0.72
2023-01-26T16:14:02.381Z,0.69
2023-01-26T16:14:51.951Z,0.69
2023-01-26T16:15:50.985Z,0.69
2023-01-26T16:16:50.937Z,0.67
2023-01-26T16:17:50.936Z,0.66
2023-01-26T16:18:50.977Z,0.66
2023-01-26T16:19:50.915Z,0.66
2023-01-26T16:20:50.909Z,0.65
2023-01-26T16:21:50.896Z,0.64
2023-01-26T16:22:50.980Z,0.65
2023-01-26T16:23:51.060Z,0.63
2023-01-26T16:24:51.058Z,0.62
2023-01-26T16:25:51.093Z,0.62
2023-01-26T16:26:51.168Z,0.62
2023-01-26T16:27:51.172Z,0.61
2023-01-26T16:28:51.240Z,0.61
2023-01-26T16:29:51.265Z,0.60
2023-01-26T16:30:51.380Z,0.61
2023-01-26T16:31:51.535Z,0.60
2023-01-26T16:32:51.712Z,0.59
2023-01-26T16:33:51.591Z,0.59
2023-01-26T16:34:51.422Z,0.57
2023-01-26T16:35:51.532Z,0.57
2023-01-26T16:36:51.531Z,0.57
2023-01-26T16:37:51.599Z,0.56
2023-01-26T16:38:51.639Z,0.55
2023-01-26T16:39:51.714Z,0.56
2023-01-26T16:40:51.742Z,0.53
2023-01-26T16:41:51.778Z,0.55
2023-01-26T16:42:51.776Z,0.54
2023-01-26T16:43:51.765Z,0.54
2023-01-26T16:44:51.792Z,0.54
2023-01-26T16:45:51.840Z,0.54
2023-01-26T16:46:51.874Z,0.53
2023-01-26T16:47:51.839Z,0.54
2023-01-26T16:48:51.854Z,0.52
2023-01-26T16:49:51.838Z,0.52
2023-01-26T16:50:51.857Z,0.51
2023-01-26T16:51:51.865Z,0.52
2023-01-26T16:52:51.871Z,0.50
2023-01-26T16:53:51.874Z,0.51
2023-01-26T16:54:51.847Z,0.50
2023-01-26T16:55:51.876Z,0.51
2023-01-26T16:56:51.926Z,0.51
2023-01-26T16:57:51.855Z,0.52
2023-01-26T16:58:51.863Z,0.54
2023-01-26T16:59:51.826Z,0.53
2023-01-26T17:00:51.872Z,0.53
2023-01-26T17:01:51.891Z,0.54
2023-01-26T17:02:51.849Z,0.54
2023-01-26T17:03:51.836Z,0.52
2023-01-26T17:04:51.823Z,0.52
2023-01-26T17:05:51.832Z,0.51
2023-01-26T17:06:51.828Z,0.52
2023-01-26T17:07:51.836Z,0.51
2023-01-26T17:08:51.823Z,0.51
2023-01-26T17:09:51.836Z,0.51
2023-01-26T17:11:02.117Z,0.50
2023-01-26T17:11:52.809Z,0.50
2023-01-26T17:12:51.814Z,0.50
2023-01-26T17:13:51.781Z,0.50
2023-01-26T17:14:51.848Z,0.50
2023-01-26T17:15:51.768Z,0.50
2023-01-26T17:16:51.786Z,0.51
2023-01-26T17:17:51.743Z,0.51
2023-01-26T17:18:51.754Z,0.51